sensor_id;sensor_type;location;lat;lon;timestamp;P1;durP1;ratioP1;P2;durP2;ratioP2
3831;SDS011;12460;42.662;23.288;2023-01-29T00:01:42;11.70;;;8.30;;
3831;SDS011;12460;42.662;23.288;2023-01-29T00:16:47;11.00;;;6.80;;
3831;SDS011;12460;42.662;23.288;2023-01-29T00:31:52;10.00;;;6.80;;
3831;SDS011;12460;42.662;23.288;2023-01-29T00:46:57;9.80;;;7.17;;
3831;SDS011;12460;42.662;23.288;2023-01-29T01:02:02;12.20;;;7.33;;
3831;SDS011;12460;42.662;23.288;2023-01-29T01:17:26;11.67;;;7.23;;
3831;SDS011;12460;42.662;23.288;2023-01-29T01:32:31;9.63;;;6.77;;
3831;SDS011;12460;42.662;23.288;2023-01-29T01:47:41;11.20;;;7.00;;
3831;SDS011;12460;42.662;23.288;2023-01-29T02:02:47;10.97;;;8.40;;
3831;SDS011;12460;42.662;23.288;2023-01-29T02:18:12;9.20;;;6.80;;
3831;SDS011;12460;42.662;23.288;2023-01-29T02:34:03;9.07;;;6.90;;
3831;SDS011;12460;42.662;23.288;2023-01-29T02:48:53;11.30;;;7.67;;
3831;SDS011;12460;42.662;23.288;2023-01-29T03:04:08;9.83;;;7.60;;
3831;SDS011;12460;42.662;23.288;2023-01-29T03:19:15;7.57;;;6.20;;
3831;SDS011;12460;42.662;23.288;2023-01-29T03:34:23;6.60;;;5.30;;
3831;SDS011;12460;42.662;23.288;2023-01-29T04:04:40;6.20;;;5.20;;
3831;SDS011;12460;42.662;23.288;2023-01-29T04:19:46;5.90;;;5.30;;
3831;SDS011;12460;42.662;23.288;2023-01-29T04:50:11;5.80;;;5.00;;
3831;SDS011;12460;42.662;23.288;2023-01-29T05:05:17;6.53;;;5.60;;
3831;SDS011;12460;42.662;23.288;2023-01-29T05:20:22;6.50;;;5.03;;
3831;SDS011;12460;42.662;23.288;2023-01-29T05:35:26;5.20;;;4.43;;
3831;SDS011;12460;42.662;23.288;2023-01-29T05:50:32;6.73;;;5.50;;
3831;SDS011;12460;42.662;23.288;2023-01-29T06:05:37;5.87;;;5.27;;
3831;SDS011;12460;42.662;23.288;2023-01-29T06:20:42;6.90;;;5.50;;
3831;SDS011;12460;42.662;23.288;2023-01-29T06:35:46;7.83;;;5.80;;
3831;SDS011;12460;42.662;23.288;2023-01-29T06:50:51;12.57;;;7.43;;
3831;SDS011;12460;42.662;23.288;2023-01-29T07:05:58;7.07;;;6.13;;
3831;SDS011;12460;42.662;23.288;2023-01-29T07:21:03;9.13;;;7.00;;
3831;SDS011;12460;42.662;23.288;2023-01-29T07:36:10;13.53;;;8.93;;
3831;SDS011;12460;42.662;23.288;2023-01-29T07:51:15;12.13;;;8.20;;
3831;SDS011;12460;42.662;23.288;2023-01-29T08:06:22;13.30;;;8.90;;
3831;SDS011;12460;42.662;23.288;2023-01-29T08:21:26;8.63;;;7.20;;
3831;SDS011;12460;42.662;23.288;2023-01-29T08:36:30;8.87;;;7.17;;
3831;SDS011;12460;42.662;23.288;2023-01-29T08:51:35;11.10;;;7.50;;
3831;SDS011;12460;42.662;23.288;2023-01-29T09:06:40;14.03;;;9.53;;
3831;SDS011;12460;42.662;23.288;2023-01-29T09:21:44;13.70;;;9.40;;
3831;SDS011;12460;42.662;23.288;2023-01-29T09:36:50;13.90;;;9.80;;
3831;SDS011;12460;42.662;23.288;2023-01-29T09:52:00;13.33;;;9.80;;
3831;SDS011;12460;42.662;23.288;2023-01-29T10:07:11;15.17;;;10.23;;
3831;SDS011;12460;42.662;23.288;2023-01-29T10:37:39;14.57;;;9.70;;
3831;SDS011;12460;42.662;23.288;2023-01-29T11:08:10;37.90;;;18.90;;
3831;SDS011;12460;42.662;23.288;2023-01-29T11:23:24;45.63;;;22.53;;
3831;SDS011;12460;42.662;23.288;2023-01-29T11:38:30;20.90;;;11.70;;
3831;SDS011;12460;42.662;23.288;2023-01-29T11:53:36;19.43;;;12.37;;
3831;SDS011;12460;42.662;23.288;2023-01-29T12:08:42;17.77;;;10.90;;
3831;SDS011;12460;42.662;23.288;2023-01-29T12:23:49;19.77;;;11.57;;
3831;SDS011;12460;42.662;23.288;2023-01-29T12:38:55;15.33;;;11.13;;
3831;SDS011;12460;42.662;23.288;2023-01-29T13:09:07;18.53;;;10.93;;
3831;SDS011;12460;42.662;23.288;2023-01-29T13:24:17;15.90;;;10.93;;
3831;SDS011;12460;42.662;23.288;2023-01-29T13:39:32;15.40;;;10.77;;
3831;SDS011;12460;42.662;23.288;2023-01-29T13:54:37;14.20;;;10.00;;
3831;SDS011;12460;42.662;23.288;2023-01-29T14:24:54;17.67;;;12.47;;
3831;SDS011;12460;42.662;23.288;2023-01-29T15:10:47;23.30;;;14.13;;
3831;SDS011;12460;42.662;23.288;2023-01-29T15:26:19;20.13;;;13.70;;
3831;SDS011;12460;42.662;23.288;2023-01-29T15:41:23;28.03;;;15.87;;
3831;SDS011;12460;42.662;23.288;2023-01-29T15:56:32;21.77;;;12.83;;
3831;SDS011;12460;42.662;23.288;2023-01-29T16:11:37;23.93;;;14.30;;
3831;SDS011;12460;42.662;23.288;2023-01-29T16:26:44;25.47;;;13.00;;
3831;SDS011;12460;42.662;23.288;2023-01-29T16:57:15;20.07;;;12.13;;
3831;SDS011;12460;42.662;23.288;2023-01-29T17:12:24;21.43;;;13.40;;
3831;SDS011;12460;42.662;23.288;2023-01-29T17:27:29;27.10;;;16.00;;
3831;SDS011;12460;42.662;23.288;2023-01-29T17:42:34;23.13;;;13.20;;
3831;SDS011;12460;42.662;23.288;2023-01-29T17:57:38;23.43;;;13.70;;
3831;SDS011;12460;42.662;23.288;2023-01-29T18:12:42;22.00;;;14.20;;
3831;SDS011;12460;42.662;23.288;2023-01-29T18:27:47;18.30;;;11.60;;
3831;SDS011;12460;42.662;23.288;2023-01-29T18:42:51;21.80;;;12.63;;
3831;SDS011;12460;42.662;23.288;2023-01-29T18:57:55;20.00;;;11.90;;
3831;SDS011;12460;42.662;23.288;2023-01-29T19:13:22;22.00;;;11.87;;
3831;SDS011;12460;42.662;23.288;2023-01-29T19:28:26;23.83;;;12.43;;
3831;SDS011;12460;42.662;23.288;2023-01-29T19:43:31;18.20;;;12.10;;
3831;SDS011;12460;42.662;23.288;2023-01-29T19:58:35;22.20;;;12.07;;
3831;SDS011;12460;42.662;23.288;2023-01-29T20:13:40;24.73;;;14.20;;
3831;SDS011;12460;42.662;23.288;2023-01-29T20:28:45;24.63;;;14.00;;
3831;SDS011;12460;42.662;23.288;2023-01-29T20:43:50;23.80;;;11.80;;
3831;SDS011;12460;42.662;23.288;2023-01-29T20:58:55;26.90;;;12.87;;
3831;SDS011;12460;42.662;23.288;2023-01-29T21:14:00;25.13;;;13.23;;
3831;SDS011;12460;42.662;23.288;2023-01-29T21:29:05;14.70;;;10.20;;
3831;SDS011;12460;42.662;23.288;2023-01-29T21:44:10;12.30;;;7.93;;
3831;SDS011;12460;42.662;23.288;2023-01-29T21:59:16;18.00;;;10.03;;
3831;SDS011;12460;42.662;23.288;2023-01-29T22:14:20;17.80;;;10.33;;
3831;SDS011;12460;42.662;23.288;2023-01-29T22:29:24;19.33;;;11.50;;
3831;SDS011;12460;42.662;23.288;2023-01-29T22:44:29;21.60;;;11.50;;
3831;SDS011;12460;42.662;23.288;2023-01-29T22:59:33;15.80;;;10.10;;
3831;SDS011;12460;42.662;23.288;2023-01-29T23:14:38;16.23;;;9.13;;
3831;SDS011;12460;42.662;23.288;2023-01-29T23:29:42;15.00;;;9.00;;
3831;SDS011;12460;42.662;23.288;2023-01-29T23:44:47;19.87;;;10.33;;
3831;SDS011;12460;42.662;23.288;2023-01-29T23:59:51;13.17;;;8.67;;
